createdAt,value
2018-12-15T00:02:18.356Z,28.60
2018-12-15T00:04:49.136Z,36.20
2018-12-15T00:07:20.664Z,32.83
2018-12-15T00:09:49.631Z,26.87
2018-12-15T00:12:18.424Z,29.50
2018-12-15T00:14:47.628Z,26.57
2018-12-15T00:17:16.687Z,29.37
2018-12-15T00:19:45.750Z,31.63
2018-12-15T00:22:14.531Z,27.87
2018-12-15T00:24:43.517Z,32.43
2018-12-15T00:27:12.643Z,31.33
2018-12-15T00:29:41.384Z,27.47
2018-12-15T00:32:10.119Z,30.43
2018-12-15T00:34:39.184Z,29.67
2018-12-15T00:37:07.902Z,28.87
2018-12-15T00:39:36.639Z,26.33
2018-12-15T00:42:05.514Z,29.73
2018-12-15T00:44:34.654Z,31.13
2018-12-15T00:47:06.718Z,35.85
2018-12-15T00:49:35.974Z,29.17
2018-12-15T00:52:05.182Z,31.50
2018-12-15T00:54:34.179Z,32.20
2018-12-15T00:57:03.101Z,31.13
2018-12-15T00:59:31.902Z,28.20
2018-12-15T01:02:00.666Z,30.07
2018-12-15T01:04:29.534Z,28.47
2018-12-15T01:06:58.277Z,27.53
2018-12-15T01:09:27.347Z,30.83
2018-12-15T01:11:56.255Z,30.57
2018-12-15T01:14:25.328Z,29.90
2018-12-15T01:16:54.203Z,32.00
2018-12-15T01:19:23.183Z,30.25
2018-12-15T01:21:52.239Z,31.50
2018-12-15T01:24:21.034Z,31.17
2018-12-15T01:26:49.819Z,29.27
2018-12-15T01:29:18.962Z,33.60
2018-12-15T01:31:47.683Z,30.92
2018-12-15T01:34:16.634Z,31.47
2018-12-15T01:36:45.452Z,31.03
2018-12-15T01:39:14.182Z,29.42
2018-12-15T01:41:43.275Z,32.00
2018-12-15T01:44:12.182Z,32.90
2018-12-15T01:46:41.247Z,29.97
2018-12-15T01:49:10.026Z,30.27
2018-12-15T01:51:38.767Z,28.57
2018-12-15T01:54:07.525Z,30.90
2018-12-15T01:56:36.268Z,29.50
2018-12-15T01:59:05.123Z,29.60
2018-12-15T02:01:33.984Z,34.30
2018-12-15T02:04:02.963Z,30.07
2018-12-15T02:06:32.034Z,26.77
2018-12-15T02:09:00.842Z,30.92
2018-12-15T02:11:31.797Z,32.03
2018-12-15T02:14:00.630Z,31.07
2018-12-15T02:16:55.906Z,33.30
2018-12-15T02:19:25.182Z,33.10
2018-12-15T02:21:54.182Z,31.27
2018-12-15T02:24:23.275Z,34.43
2018-12-15T02:26:52.010Z,30.73
2018-12-15T02:29:20.826Z,30.25
2018-12-15T02:31:49.758Z,34.67
2018-12-15T02:34:18.501Z,29.92
2018-12-15T02:36:47.226Z,31.97
2018-12-15T02:39:16.123Z,32.30
2018-12-15T02:41:47.349Z,36.00
2018-12-15T02:44:15.632Z,32.63
2018-12-15T02:46:44.728Z,30.77
2018-12-15T02:49:13.642Z,35.00
2018-12-15T02:51:42.416Z,32.20
2018-12-15T02:54:11.164Z,31.17
2018-12-15T02:56:39.992Z,34.20
2018-12-15T02:59:09.095Z,38.03
2018-12-15T03:01:38.086Z,36.43
2018-12-15T03:04:06.964Z,37.77
2018-12-15T03:06:35.875Z,35.90
2018-12-15T03:09:06.883Z,38.70
2018-12-15T03:11:37.791Z,38.70
2018-12-15T03:14:06.747Z,33.70
2018-12-15T03:16:35.838Z,30.97
2018-12-15T03:19:12.174Z,32.90
2018-12-15T03:21:40.968Z,37.07
2018-12-15T03:24:10.036Z,32.48
2018-12-15T03:26:39.183Z,35.60
2018-12-15T03:29:07.952Z,36.30
2018-12-15T03:31:37.031Z,38.50
2018-12-15T03:34:05.911Z,34.00
2018-12-15T03:36:34.719Z,33.28
2018-12-15T03:39:05.831Z,35.47
2018-12-15T03:41:37.068Z,37.17
2018-12-15T03:44:06.038Z,32.97
2018-12-15T03:46:34.950Z,36.37
2018-12-15T03:49:04.113Z,37.00
2018-12-15T03:51:33.178Z,39.37
2018-12-15T03:54:01.994Z,33.97
2018-12-15T03:56:30.847Z,35.37
2018-12-15T03:58:59.598Z,38.67
2018-12-15T04:01:28.613Z,32.23
2018-12-15T04:03:57.522Z,34.60
2018-12-15T04:06:26.756Z,34.57
2018-12-15T04:08:55.817Z,33.27
2018-12-15T04:11:24.814Z,34.47
2018-12-15T04:13:53.886Z,40.17
2018-12-15T04:16:22.898Z,37.23
2018-12-15T04:18:51.862Z,38.87
2018-12-15T04:21:20.762Z,35.17
2018-12-15T04:23:49.847Z,38.48
2018-12-15T04:26:19.071Z,35.60
2018-12-15T04:28:47.828Z,33.03
2018-12-15T04:31:16.735Z,38.07
2018-12-15T04:33:45.884Z,34.97
2018-12-15T04:36:18.357Z,35.40
2018-12-15T04:38:47.492Z,35.38
2018-12-15T04:41:17.315Z,40.53
2018-12-15T04:43:46.469Z,41.03
2018-12-15T04:46:15.303Z,33.13
2018-12-15T04:48:44.298Z,31.50
2018-12-15T04:51:13.301Z,40.55
2018-12-15T04:53:42.114Z,37.07
2018-12-15T04:56:10.954Z,41.08
2018-12-15T04:58:40.031Z,38.83
2018-12-15T05:01:08.951Z,38.27
2018-12-15T05:03:38.475Z,40.27
2018-12-15T05:06:08.585Z,38.00
2018-12-15T05:08:37.463Z,37.53
2018-12-15T05:11:06.528Z,35.87
2018-12-15T05:13:35.847Z,35.20
2018-12-15T05:16:04.801Z,36.37
2018-12-15T05:18:33.967Z,34.27
2018-12-15T05:21:03.810Z,40.20
2018-12-15T05:23:32.659Z,38.33
2018-12-15T05:26:01.756Z,37.23
2018-12-15T05:28:30.635Z,36.93
2018-12-15T05:30:59.706Z,37.60
2018-12-15T05:33:28.682Z,37.87
2018-12-15T05:35:57.613Z,37.70
2018-12-15T05:38:26.744Z,35.23
2018-12-15T05:40:55.582Z,39.83
2018-12-15T05:43:24.800Z,41.27
2018-12-15T05:45:55.024Z,34.73
2018-12-15T05:48:25.307Z,35.80
2018-12-15T05:50:54.636Z,37.83
2018-12-15T05:53:23.614Z,39.03
2018-12-15T05:55:52.612Z,37.40
2018-12-15T05:58:21.612Z,42.73
2018-12-15T06:00:50.688Z,35.77
2018-12-15T06:03:19.596Z,39.97
2018-12-15T06:06:00.014Z,35.57
2018-12-15T06:08:28.929Z,36.57
2018-12-15T06:10:57.943Z,42.47
2018-12-15T06:13:27.010Z,36.47
2018-12-15T06:15:56.024Z,36.97
2018-12-15T06:18:31.375Z,34.40
2018-12-15T06:20:56.291Z,39.40
2018-12-15T06:23:25.120Z,37.07
2018-12-15T06:25:54.053Z,38.47
2018-12-15T06:28:23.040Z,37.90
2018-12-15T06:30:52.174Z,38.90
2018-12-15T06:33:21.007Z,38.67
2018-12-15T06:35:50.014Z,37.97
2018-12-15T06:38:19.008Z,34.33
2018-12-15T06:40:48.106Z,34.70
2018-12-15T06:43:17.443Z,32.80
2018-12-15T06:45:47.122Z,32.03
2018-12-15T06:48:16.210Z,36.33
2018-12-15T06:50:45.186Z,32.67
2018-12-15T06:53:14.174Z,36.50
2018-12-15T06:55:42.983Z,33.33
2018-12-15T06:58:12.787Z,35.80
2018-12-15T07:00:41.997Z,34.13
2018-12-15T07:03:10.758Z,30.75
2018-12-15T07:05:39.885Z,35.13
2018-12-15T07:08:08.747Z,32.50
2018-12-15T07:10:37.786Z,29.07
2018-12-15T07:13:07.155Z,34.47
2018-12-15T07:15:36.014Z,34.67
2018-12-15T07:18:05.471Z,34.75
2018-12-15T07:20:34.376Z,34.33
2018-12-15T07:23:03.403Z,35.92
2018-12-15T07:25:33.762Z,32.67
2018-12-15T07:28:02.598Z,31.07
2018-12-15T07:30:31.994Z,38.20
2018-12-15T07:33:00.811Z,33.37
2018-12-15T07:35:29.806Z,31.57
2018-12-15T07:37:58.913Z,31.37
2018-12-15T07:40:27.946Z,38.60
2018-12-15T07:42:56.862Z,32.93
2018-12-15T07:45:26.089Z,31.73
2018-12-15T07:47:54.894Z,32.75
2018-12-15T07:50:24.140Z,31.87
2018-12-15T07:52:53.288Z,30.67
2018-12-15T07:55:22.082Z,35.05
2018-12-15T07:57:50.899Z,31.57
2018-12-15T08:00:19.784Z,31.70
2018-12-15T08:02:48.790Z,29.40
2018-12-15T08:05:18.826Z,27.27
2018-12-15T08:07:47.619Z,29.60
2018-12-15T08:10:20.810Z,33.92
2018-12-15T08:12:53.790Z,32.73
2018-12-15T08:15:22.735Z,34.27
2018-12-15T08:17:51.670Z,29.97
2018-12-15T08:20:20.722Z,31.47
2018-12-15T08:22:49.707Z,30.30
2018-12-15T08:25:18.548Z,28.83
2018-12-15T08:27:47.671Z,34.00
2018-12-15T08:30:16.679Z,31.23
2018-12-15T08:32:45.677Z,33.57
2018-12-15T08:35:14.394Z,32.03
2018-12-15T08:37:43.336Z,32.73
2018-12-15T08:40:12.843Z,28.92
2018-12-15T08:42:41.798Z,30.55
2018-12-15T08:45:10.856Z,31.17
2018-12-15T08:47:39.776Z,27.60
2018-12-15T08:50:08.683Z,34.93
2018-12-15T08:52:37.466Z,31.47
2018-12-15T08:55:06.618Z,30.73
2018-12-15T08:57:36.287Z,27.80
2018-12-15T09:00:06.154Z,31.20
2018-12-15T09:02:35.088Z,39.73
2018-12-15T09:05:05.151Z,31.85
2018-12-15T09:07:34.258Z,31.63
2018-12-15T09:12:40.466Z,31.70
2018-12-15T09:15:09.590Z,33.02
2018-12-15T09:17:38.441Z,31.27
2018-12-15T09:20:07.590Z,31.47
2018-12-15T09:22:37.790Z,35.80
2018-12-15T09:25:06.798Z,33.77
2018-12-15T09:27:36.024Z,44.20
2018-12-15T09:30:06.682Z,51.77
2018-12-15T09:32:35.859Z,43.60
2018-12-15T09:35:04.979Z,43.03
2018-12-15T09:37:33.855Z,41.00
2018-12-15T09:40:02.896Z,31.47
2018-12-15T09:42:31.902Z,28.13
2018-12-15T09:45:00.803Z,30.05
2018-12-15T09:47:29.712Z,34.13
2018-12-15T09:49:58.863Z,31.83
2018-12-15T09:52:27.728Z,33.87
2018-12-15T09:54:56.790Z,34.50
2018-12-15T09:57:25.543Z,32.37
2018-12-15T09:59:54.304Z,32.47
2018-12-15T10:02:23.444Z,30.03
2018-12-15T10:04:52.339Z,31.63
2018-12-15T10:07:21.344Z,32.33
2018-12-15T10:09:50.110Z,33.33
2018-12-15T10:12:19.022Z,35.53
2018-12-15T10:14:49.018Z,31.83
2018-12-15T10:17:18.027Z,34.03
2018-12-15T10:19:46.926Z,30.37
2018-12-15T10:22:15.944Z,29.98
2018-12-15T10:24:44.929Z,34.80
2018-12-15T10:27:13.924Z,35.20
2018-12-15T10:29:48.298Z,35.27
2018-12-15T10:32:23.550Z,30.50
2018-12-15T10:34:52.631Z,49.43
2018-12-15T10:37:21.616Z,43.52
2018-12-15T10:39:50.618Z,43.57
2018-12-15T10:42:19.531Z,36.58
2018-12-15T10:44:48.544Z,37.00
2018-12-15T10:50:11.081Z,28.57
2018-12-15T10:52:40.094Z,30.87
2018-12-15T10:55:09.762Z,28.27
2018-12-15T10:57:39.990Z,29.50
2018-12-15T11:00:16.841Z,28.00
2018-12-15T11:02:47.947Z,31.03
2018-12-15T11:05:18.251Z,31.02
2018-12-15T11:07:47.229Z,33.93
2018-12-15T11:10:16.329Z,33.07
2018-12-15T11:12:47.067Z,30.87
2018-12-15T11:15:16.070Z,28.50
2018-12-15T11:17:45.126Z,28.80
2018-12-15T11:20:13.960Z,28.10
2018-12-15T11:22:42.715Z,25.73
2018-12-15T11:25:12.482Z,28.50
2018-12-15T11:27:41.287Z,26.87
2018-12-15T11:30:10.474Z,27.22
2018-12-15T11:32:39.624Z,25.00
2018-12-15T11:35:08.538Z,27.47
2018-12-15T11:37:37.374Z,28.30
2018-12-15T11:40:06.618Z,28.87
2018-12-15T11:42:35.754Z,25.27
2018-12-15T11:45:05.746Z,25.70
2018-12-15T11:47:34.806Z,23.13
2018-12-15T11:50:03.789Z,25.73
2018-12-15T11:52:32.624Z,23.57
2018-12-15T11:55:01.559Z,26.47
2018-12-15T11:57:30.553Z,24.73
2018-12-15T11:59:59.462Z,23.63
2018-12-15T12:02:31.819Z,26.47
2018-12-15T12:04:59.171Z,25.63
2018-12-15T12:07:27.963Z,25.70
2018-12-15T12:09:57.185Z,25.37
2018-12-15T12:12:26.341Z,24.10
2018-12-15T12:14:55.289Z,24.50
2018-12-15T12:17:24.335Z,23.93
2018-12-15T12:19:53.320Z,26.70
2018-12-15T12:22:22.295Z,23.90
2018-12-15T12:24:51.086Z,25.20
2018-12-15T12:27:22.131Z,26.10
2018-12-15T12:29:51.000Z,27.32
2018-12-15T12:32:19.876Z,27.82
2018-12-15T12:34:49.036Z,29.33
2018-12-15T12:37:18.099Z,27.30
2018-12-15T12:39:47.098Z,25.00
2018-12-15T12:42:15.863Z,23.13
2018-12-15T12:44:44.794Z,26.17
2018-12-15T12:47:13.554Z,23.70
2018-12-15T12:49:42.432Z,27.03
2018-12-15T12:52:11.789Z,25.17
2018-12-15T12:54:41.275Z,29.57
2018-12-15T13:00:11.603Z,31.47
2018-12-15T13:02:41.434Z,28.03
2018-12-15T13:05:10.427Z,30.60
2018-12-15T13:07:39.806Z,24.73
2018-12-15T13:10:08.862Z,27.07
2018-12-15T13:12:37.699Z,27.20
2018-12-15T13:15:07.488Z,27.22
2018-12-15T13:17:36.302Z,25.90
2018-12-15T13:20:05.727Z,27.33
2018-12-15T13:22:34.518Z,27.67
2018-12-15T13:25:03.423Z,27.63
2018-12-15T13:27:32.283Z,30.00
2018-12-15T13:30:01.331Z,28.93
2018-12-15T13:32:30.327Z,29.40
2018-12-15T13:34:59.424Z,28.23
2018-12-15T13:37:28.388Z,29.23
2018-12-15T13:39:57.228Z,31.47
2018-12-15T13:42:26.382Z,27.40
2018-12-15T13:44:55.216Z,28.73
2018-12-15T13:47:24.291Z,25.65
2018-12-15T13:49:53.298Z,23.30
2018-12-15T13:52:22.028Z,31.47
2018-12-15T13:54:50.851Z,27.13
2018-12-15T13:57:19.647Z,24.80
2018-12-15T13:59:48.372Z,25.67
2018-12-15T14:02:17.242Z,28.70
2018-12-15T14:04:46.237Z,23.20
2018-12-15T14:07:15.099Z,28.03
2018-12-15T14:09:43.919Z,24.10
2018-12-15T14:15:02.316Z,24.13
2018-12-15T14:17:32.171Z,25.27
2018-12-15T14:20:16.759Z,26.20
2018-12-15T14:22:44.842Z,23.60
2018-12-15T14:25:13.632Z,27.70
2018-12-15T14:27:42.574Z,27.13
2018-12-15T14:30:11.814Z,25.05
2018-12-15T14:32:40.793Z,27.97
2018-12-15T14:35:09.854Z,25.83
2018-12-15T14:37:38.874Z,27.63
2018-12-15T14:40:08.766Z,26.33
2018-12-15T14:42:37.811Z,25.93
2018-12-15T14:45:06.814Z,26.00
2018-12-15T14:47:35.790Z,24.05
2018-12-15T14:50:05.675Z,26.68
2018-12-15T14:52:34.636Z,27.37
2018-12-15T14:55:03.693Z,28.07
2018-12-15T14:57:32.546Z,25.03
2018-12-15T15:00:01.346Z,24.67
2018-12-15T15:02:31.219Z,27.97
2018-12-15T15:05:00.152Z,20.17
2018-12-15T15:07:29.119Z,26.70
2018-12-15T15:09:58.114Z,25.87
2018-12-15T15:12:27.194Z,26.93
2018-12-15T15:14:56.122Z,28.07
2018-12-15T15:17:26.584Z,24.33
2018-12-15T15:19:55.615Z,28.30
2018-12-15T15:22:25.030Z,29.00
2018-12-15T15:24:53.916Z,28.20
2018-12-15T15:27:22.919Z,29.03
2018-12-15T15:29:51.964Z,27.10
2018-12-15T15:32:21.038Z,25.60
2018-12-15T15:37:49.370Z,28.77
2018-12-15T15:40:18.731Z,30.08
2018-12-15T15:42:47.739Z,27.63
2018-12-15T15:45:16.653Z,25.82
2018-12-15T15:47:45.634Z,28.60
2018-12-15T15:50:15.318Z,25.43
2018-12-15T15:52:44.850Z,27.83
2018-12-15T15:55:14.169Z,28.27
2018-12-15T15:57:43.202Z,25.63
2018-12-15T16:00:12.380Z,25.15
2018-12-15T16:02:42.962Z,24.03
2018-12-15T16:05:11.972Z,26.13
2018-12-15T16:07:40.882Z,25.50
2018-12-15T16:10:24.101Z,25.67
2018-12-15T16:12:53.602Z,26.63
2018-12-15T16:15:22.594Z,26.68
2018-12-15T16:17:51.609Z,22.27
2018-12-15T16:20:20.728Z,23.20
2018-12-15T16:22:51.042Z,25.13
2018-12-15T16:25:20.119Z,23.60
2018-12-15T16:27:49.102Z,24.93
2018-12-15T16:30:18.260Z,24.02
2018-12-15T16:32:47.386Z,28.47
2018-12-15T16:35:16.385Z,23.22
2018-12-15T16:37:45.459Z,26.90
2018-12-15T16:40:14.460Z,25.30
2018-12-15T16:42:43.421Z,24.77
2018-12-15T16:45:12.649Z,28.47
2018-12-15T16:47:41.730Z,28.60
2018-12-15T16:50:13.425Z,27.50
2018-12-15T16:52:42.855Z,26.90
2018-12-15T16:55:12.222Z,25.52
2018-12-15T16:57:42.660Z,28.40
2018-12-15T17:00:14.684Z,24.10
2018-12-15T17:02:43.708Z,26.30
2018-12-15T17:05:12.578Z,26.53
2018-12-15T17:07:41.741Z,27.53
2018-12-15T17:10:10.789Z,25.62
2018-12-15T17:12:39.558Z,23.90
2018-12-15T17:15:10.053Z,26.90
2018-12-15T17:17:40.623Z,24.50
2018-12-15T17:20:10.143Z,25.30
2018-12-15T17:22:39.290Z,24.40
2018-12-15T17:25:08.696Z,25.47
2018-12-15T17:27:37.888Z,25.07
2018-12-15T17:30:10.037Z,26.23
2018-12-15T17:32:39.266Z,26.13
2018-12-15T17:35:08.364Z,26.40
2018-12-15T17:37:38.154Z,29.97
2018-12-15T17:40:08.838Z,24.67
2018-12-15T17:42:38.783Z,27.43
2018-12-15T17:45:08.156Z,24.67
2018-12-15T17:50:51.992Z,24.52
2018-12-15T17:53:21.198Z,25.07
2018-12-15T17:55:49.983Z,28.00
2018-12-15T17:58:19.169Z,28.87
2018-12-15T18:00:47.975Z,26.33
2018-12-15T18:03:17.151Z,52.23
2018-12-15T18:05:46.303Z,65.17
2018-12-15T18:08:15.464Z,31.23
2018-12-15T18:10:44.821Z,28.57
2018-12-15T18:13:14.093Z,26.27
2018-12-15T18:15:43.042Z,26.27
2018-12-15T18:18:12.091Z,24.03
2018-12-15T18:20:41.112Z,23.30
2018-12-15T18:23:10.024Z,31.85
2018-12-15T18:25:39.067Z,29.10
2018-12-15T18:28:08.008Z,31.13
2018-12-15T18:30:37.002Z,28.43
2018-12-15T18:33:06.039Z,22.27
2018-12-15T18:35:34.977Z,24.80
2018-12-15T18:38:04.110Z,28.00
2018-12-15T18:40:33.081Z,26.00
2018-12-15T18:43:01.957Z,25.77
2018-12-15T18:45:31.015Z,27.87
2018-12-15T18:48:00.697Z,25.63
2018-12-15T18:50:30.531Z,29.17
2018-12-15T18:53:01.136Z,26.57
2018-12-15T18:55:31.528Z,27.43
2018-12-15T18:58:00.583Z,31.50
2018-12-15T19:00:29.655Z,28.33
2018-12-15T19:02:58.650Z,28.23
2018-12-15T19:05:27.501Z,27.27
2018-12-15T19:07:56.543Z,27.00
2018-12-15T19:10:26.398Z,31.53
2018-12-15T19:12:55.389Z,29.07
2018-12-15T19:15:24.203Z,27.70
2018-12-15T19:17:53.148Z,26.23
2018-12-15T19:20:22.147Z,28.17
2018-12-15T19:22:51.768Z,27.97
2018-12-15T19:25:22.011Z,29.75
2018-12-15T19:27:50.759Z,27.93
2018-12-15T19:30:20.546Z,31.43
2018-12-15T19:32:49.678Z,32.17
2018-12-15T19:35:18.687Z,29.10
2018-12-15T19:37:50.732Z,29.30
2018-12-15T19:40:19.894Z,29.17
2018-12-15T19:42:48.835Z,27.67
2018-12-15T19:45:17.888Z,27.10
2018-12-15T19:47:46.807Z,25.60
2018-12-15T19:50:15.886Z,26.60
2018-12-15T19:52:44.659Z,28.00
2018-12-15T19:55:13.471Z,31.33
2018-12-15T19:57:43.403Z,26.60
2018-12-15T20:00:13.148Z,30.83
2018-12-15T20:02:42.416Z,29.87
2018-12-15T20:05:11.354Z,30.17
2018-12-15T20:07:40.291Z,29.07
2018-12-15T20:10:10.266Z,27.27
2018-12-15T20:12:39.308Z,29.00
2018-12-15T20:15:08.644Z,24.13
2018-12-15T20:17:37.857Z,29.75
2018-12-15T20:20:08.184Z,28.73
2018-12-15T20:22:37.374Z,29.93
2018-12-15T20:25:07.303Z,26.97
2018-12-15T20:27:36.688Z,26.60
2018-12-15T20:30:06.397Z,28.57
2018-12-15T20:32:36.190Z,29.00
2018-12-15T20:35:06.107Z,30.23
2018-12-15T20:37:34.937Z,23.67
2018-12-15T20:40:04.511Z,27.67
2018-12-15T20:42:33.693Z,30.23
2018-12-15T20:45:02.991Z,26.57
2018-12-15T20:47:31.843Z,31.67
2018-12-15T20:50:01.054Z,25.73
2018-12-15T20:52:30.064Z,28.23
2018-12-15T20:54:59.129Z,28.92
2018-12-15T20:57:28.223Z,26.40
2018-12-15T20:59:57.406Z,28.37
2018-12-15T21:02:26.144Z,29.73
2018-12-15T21:04:55.193Z,28.20
2018-12-15T21:07:24.084Z,26.42
2018-12-15T21:09:53.198Z,28.90
2018-12-15T21:12:22.138Z,28.55
2018-12-15T21:14:51.065Z,31.47
2018-12-15T21:17:20.275Z,33.53
2018-12-15T21:19:49.464Z,34.63
2018-12-15T21:22:18.507Z,33.40
2018-12-15T21:24:47.354Z,42.13
2018-12-15T21:27:16.319Z,30.72
2018-12-15T21:29:45.490Z,33.63
2018-12-15T21:32:14.779Z,31.93
2018-12-15T21:34:43.735Z,33.67
2018-12-15T21:37:13.595Z,31.33
2018-12-15T21:39:42.518Z,30.63
2018-12-15T21:42:11.629Z,32.80
2018-12-15T21:44:41.547Z,32.17
2018-12-15T21:47:10.403Z,33.23
2018-12-15T21:49:39.395Z,33.13
2018-12-15T21:52:08.535Z,30.20
2018-12-15T21:54:37.397Z,28.67
2018-12-15T21:57:06.601Z,35.17
2018-12-15T21:59:35.509Z,27.87
2018-12-15T22:02:05.518Z,29.00
2018-12-15T22:04:35.591Z,32.80
2018-12-15T22:07:04.811Z,31.43
2018-12-15T22:09:33.943Z,33.13
2018-12-15T22:12:07.506Z,28.67
2018-12-15T22:14:37.378Z,30.57
2018-12-15T22:17:06.375Z,33.77
2018-12-15T22:19:35.358Z,32.70
2018-12-15T22:22:05.114Z,31.17
2018-12-15T22:24:33.888Z,27.97
2018-12-15T22:27:02.963Z,25.97
2018-12-15T22:29:32.110Z,31.90
2018-12-15T22:32:00.591Z,31.73
2018-12-15T22:34:29.608Z,29.07
2018-12-15T22:36:58.543Z,27.47
2018-12-15T22:39:27.951Z,28.93
2018-12-15T22:41:56.898Z,34.53
2018-12-15T22:44:25.815Z,25.77
2018-12-15T22:46:54.902Z,31.47
2018-12-15T22:49:23.903Z,29.20
2018-12-15T22:51:53.198Z,28.47
2018-12-15T22:54:22.102Z,27.97
2018-12-15T22:56:51.098Z,25.60
2018-12-15T22:59:20.794Z,26.48
2018-12-15T23:01:49.864Z,27.83
2018-12-15T23:04:18.916Z,25.70
2018-12-15T23:06:48.049Z,24.97
2018-12-15T23:09:17.389Z,30.27
2018-12-15T23:11:46.262Z,25.67
2018-12-15T23:14:15.331Z,28.43
2018-12-15T23:16:44.660Z,23.67
2018-12-15T23:19:13.566Z,26.70
2018-12-15T23:21:42.676Z,26.87
2018-12-15T23:24:11.550Z,25.93
2018-12-15T23:26:40.605Z,23.40
2018-12-15T23:29:09.674Z,24.80
2018-12-15T23:31:38.639Z,25.27
2018-12-15T23:34:07.585Z,27.57
2018-12-15T23:36:36.568Z,24.33
2018-12-15T23:39:07.359Z,26.97
2018-12-15T23:41:38.478Z,26.60
2018-12-15T23:44:07.894Z,25.13
2018-12-15T23:46:36.786Z,25.03
2018-12-15T23:49:05.873Z,23.43
2018-12-15T23:51:34.998Z,22.17
2018-12-15T23:54:06.126Z,20.33
2018-12-15T23:56:34.898Z,22.00
2018-12-15T23:59:04.795Z,22.27
